Time;durP1;ratioP1;P1;durP2;ratioP2;P2;SDS_P1;SDS_P2;PMS_P1;PMS_P2;Temp;Humidity;BMP_temperature;BMP_pressure;BME280_temperature;BME280_humidity;BME280_pressure;Samples;Min_cycle;Max_cycle;Signal;HPM_P1;HPM_P2
2022/07/18 00:02:22;;;;;;;1.77;1.20;;;23.60;7.20;;;;;;5080386;28;20474;-80
2022/07/18 00:04:53;;;;;;;2.90;1.40;;;23.60;7.40;;;;;;5080857;28;20530;-80
2022/07/18 00:07:21;;;;;;;3.30;1.50;;;23.50;6.70;;;;;;5084090;28;20464;-80
2022/07/18 00:09:49;;;;;;;1.70;1.30;;;23.50;7.20;;;;;;5081449;28;20484;-80
2022/07/18 00:12:18;;;;;;;2.83;1.37;;;23.50;7.30;;;;;;5089424;28;20458;-79
2022/07/18 00:14:46;;;;;;;1.30;1.20;;;23.50;4.70;;;;;;5081202;28;20910;-79
2022/07/18 00:17:14;;;;;;;1.70;1.30;;;23.40;6.40;;;;;;5085356;28;20449;-79
2022/07/18 00:19:43;;;;;;;2.63;1.50;;;23.40;5.60;;;;;;5084582;28;21029;-79
2022/07/18 00:22:12;;;;;;;1.50;1.40;;;23.40;6.30;;;;;;5086068;28;20505;-79
2022/07/18 00:24:40;;;;;;;2.60;1.67;;;23.30;5.50;;;;;;5080531;28;20481;-79
2022/07/18 00:27:08;;;;;;;1.57;1.30;;;23.30;5.40;;;;;;5084151;28;20452;-80
2022/07/18 00:29:37;;;;;;;1.87;1.77;;;23.30;5.50;;;;;;5086855;28;20475;-80
2022/07/18 00:32:07;;;;;;;1.50;1.40;;;23.30;5.70;;;;;;5083300;28;20456;-79
2022/07/18 00:34:36;;;;;;;2.30;1.30;;;23.20;5.00;;;;;;5081847;28;20487;-79
2022/07/18 00:37:04;;;;;;;2.23;1.30;;;23.20;4.90;;;;;;5087812;28;20457;-80
2022/07/18 00:39:34;;;;;;;1.63;1.10;;;23.20;5.40;;;;;;5086064;28;20461;-80
2022/07/18 00:42:02;;;;;;;1.13;1.03;;;23.10;4.90;;;;;;5083075;28;21017;-78
2022/07/18 00:44:30;;;;;;;1.60;1.43;;;23.10;4.60;;;;;;5086189;28;20473;-79
2022/07/18 00:47:01;;;;;;;1.80;1.70;;;23.10;4.70;;;;;;5083881;28;20844;-78
2022/07/18 00:49:29;;;;;;;2.70;1.30;;;23.10;3.80;;;;;;5084351;28;20553;-80
2022/07/18 00:51:58;;;;;;;2.17;1.30;;;23.00;4.20;;;;;;5086747;28;20454;-80
2022/07/18 00:54:26;;;;;;;1.43;1.30;;;23.00;3.30;;;;;;5082013;28;20522;-80
2022/07/18 00:56:56;;;;;;;2.10;1.23;;;23.00;4.10;;;;;;5085214;28;20458;-79
2022/07/18 01:01:42;;;;;;;1.37;1.30;;;23.00;4.50;;;;;;5083983;28;20460;-80
2022/07/18 01:02:13;;;;;;;1.30;1.20;;;22.90;3.80;;;;;;5083831;28;20481;-80
2022/07/18 01:04:41;;;;;;;1.67;1.37;;;22.90;4.70;;;;;;5084701;28;20475;-79
2022/07/18 01:07:10;;;;;;;1.80;1.30;;;22.90;4.20;;;;;;5088938;28;20539;-80
2022/07/18 01:09:39;;;;;;;1.73;1.30;;;22.80;3.60;;;;;;5079713;28;20445;-79
2022/07/18 01:12:09;;;;;;;1.73;1.20;;;22.80;2.90;;;;;;5088550;28;20455;-79
2022/07/18 01:14:38;;;;;;;2.70;1.50;;;22.80;2.50;;;;;;5083961;28;20483;-80
2022/07/18 01:17:14;;;;;;;1.60;1.50;;;22.80;2.00;;;;;;5089696;28;21264;-79
2022/07/18 01:19:43;;;;;;;1.80;1.50;;;22.70;1.30;;;;;;5084374;28;20449;-79
2022/07/18 01:22:13;;;;;;;1.67;1.57;;;22.70;2.80;;;;;;5078595;28;20497;-79
2022/07/18 01:24:42;;;;;;;1.87;1.40;;;22.60;1.80;;;;;;5085606;28;20888;-80
2022/07/18 01:27:13;;;;;;;1.50;1.40;;;22.60;2.10;;;;;;5087254;28;20468;-80
2022/07/18 01:29:42;;;;;;;1.50;1.40;;;22.60;1.40;;;;;;5085911;28;20455;-80
2022/07/18 01:32:11;;;;;;;1.80;1.47;;;22.50;2.20;;;;;;5083253;28;20446;-79
2022/07/18 01:34:40;;;;;;;3.37;1.50;;;22.50;1.20;;;;;;5083224;28;20545;-79
2022/07/18 01:37:10;;;;;;;1.73;1.40;;;22.50;1.10;;;;;;5083014;28;20829;-79
2022/07/18 01:39:39;;;;;;;1.57;1.47;;;22.50;12.20;;;;;;5081895;28;20651;-79
2022/07/18 01:42:09;;;;;;;2.07;1.30;;;22.40;1.70;;;;;;5081346;28;20914;-80
2022/07/18 01:44:38;;;;;;;4.30;1.70;;;22.40;1.00;;;;;;5081372;28;20560;-79
2022/07/18 01:47:09;;;;;;;2.30;1.30;;;22.40;1.00;;;;;;5081961;28;20442;-79
2022/07/18 01:49:38;;;;;;;1.93;1.30;;;22.40;1.00;;;;;;5085214;28;20450;-80
2022/07/18 01:52:07;;;;;;;1.50;1.40;;;22.40;1.00;;;;;;5084199;28;20460;-79
2022/07/18 01:54:37;;;;;;;1.50;1.40;;;22.30;1.00;;;;;;5080340;28;20477;-80
2022/07/18 01:57:07;;;;;;;3.87;1.60;;;22.30;1.00;;;;;;5082199;28;20583;-80
2022/07/18 01:59:36;;;;;;;1.60;1.50;;;22.30;1.00;;;;;;5086037;28;20473;-79
2022/07/18 02:02:05;;;;;;;1.33;1.23;;;22.30;1.00;;;;;;5078888;28;20485;-78
2022/07/18 02:07:19;;;;;;;1.50;1.27;;;22.20;1.00;;;;;;5081947;28;20542;-78
2022/07/18 02:09:47;;;;;;;1.40;1.30;;;22.30;2.20;;;;;;5079605;28;20450;-79
2022/07/18 02:12:17;;;;;;;1.50;1.40;;;22.20;2.60;;;;;;5085285;28;20464;-78
2022/07/18 02:14:45;;;;;;;1.50;1.40;;;22.20;1.10;;;;;;5081206;28;20535;-79
2022/07/18 02:17:13;;;;;;;1.83;1.40;;;22.20;3.40;;;;;;5081028;28;20465;-78
2022/07/18 02:19:42;;;;;;;3.77;3.47;;;22.20;1.00;;;;;;5085321;28;20479;-79
2022/07/18 02:22:10;;;;;;;1.20;1.10;;;22.10;1.80;;;;;;5082156;28;20467;-78
2022/07/18 02:24:39;;;;;;;2.40;1.40;;;22.10;1.00;;;;;;5080304;28;20489;-79
2022/07/18 02:27:07;;;;;;;1.40;1.30;;;22.10;1.00;;;;;;5068615;28;20476;-80
2022/07/18 02:29:37;;;;;;;1.50;1.40;;;22.10;1.00;;;;;;5087653;28;20543;-79
2022/07/18 02:32:05;;;;;;;1.53;1.43;;;22.00;1.00;;;;;;5077252;28;21044;-80
2022/07/18 02:34:34;;;;;;;2.30;1.30;;;22.10;2.00;;;;;;5082126;28;20496;-80
2022/07/18 02:37:03;;;;;;;1.50;1.30;;;22.00;1.50;;;;;;5082064;28;20455;-80
2022/07/18 02:39:31;;;;;;;1.53;1.43;;;22.00;1.00;;;;;;5081081;28;20453;-80
2022/07/18 02:41:59;;;;;;;2.00;1.30;;;22.00;1.00;;;;;;5084015;28;21213;-80
2022/07/18 02:44:28;;;;;;;2.20;1.30;;;22.00;1.40;;;;;;5079771;28;20476;-80
2022/07/18 02:46:57;;;;;;;1.50;1.30;;;22.00;1.20;;;;;;5077077;28;20453;-78
2022/07/18 02:49:28;;;;;;;1.30;1.20;;;21.90;1.00;;;;;;5079450;28;20830;-79
2022/07/18 02:51:58;;;;;;;2.47;1.50;;;21.90;1.00;;;;;;5083738;28;20441;-80
2022/07/18 02:54:27;;;;;;;1.40;1.30;;;21.80;1.00;;;;;;5082140;28;20477;-80
2022/07/18 02:56:55;;;;;;;2.33;1.60;;;21.80;10.30;;;;;;5083508;28;20450;-78
2022/07/18 02:59:24;;;;;;;2.40;1.40;;;21.70;1.00;;;;;;5083389;28;20509;-79
2022/07/18 03:01:53;;;;;;;2.07;1.37;;;21.70;1.00;;;;;;5082941;28;20443;-79
2022/07/18 03:04:23;;;;;;;1.70;1.60;;;21.70;1.00;;;;;;5079857;28;20489;-79
2022/07/18 03:06:51;;;;;;;1.33;1.23;;;21.60;1.00;;;;;;5079846;28;20458;-80
2022/07/18 03:09:20;;;;;;;1.30;1.20;;;21.60;1.00;;;;;;5083288;28;21625;-80
2022/07/18 03:11:49;;;;;;;1.57;1.47;;;21.70;1.00;;;;;;5081319;28;20437;-79
2022/07/18 03:14:17;;;;;;;2.00;1.47;;;21.60;1.00;;;;;;5083530;28;20494;-79
2022/07/18 03:16:45;;;;;;;1.60;1.40;;;21.60;1.00;;;;;;5082744;28;20948;-80
2022/07/18 03:19:13;;;;;;;2.37;1.37;;;21.60;1.00;;;;;;5082311;28;20469;-81
2022/07/18 03:21:43;;;;;;;1.50;1.40;;;21.60;1.00;;;;;;5081184;28;20445;-81
2022/07/18 03:24:13;;;;;;;1.70;1.40;;;21.60;1.00;;;;;;5078670;28;20515;-79
2022/07/18 03:26:42;;;;;;;2.33;1.47;;;21.50;1.00;;;;;;5078658;28;20495;-78
2022/07/18 03:29:10;;;;;;;2.80;1.57;;;21.50;1.00;;;;;;5080584;28;20461;-79
2022/07/18 03:31:39;;;;;;;2.10;1.27;;;21.50;1.00;;;;;;5083999;28;20570;-78
2022/07/18 03:34:07;;;;;;;1.57;1.30;;;21.50;1.00;;;;;;5083868;28;20481;-78
2022/07/18 03:36:37;;;;;;;3.10;1.33;;;21.50;1.00;;;;;;5081638;28;20818;-78
2022/07/18 03:39:08;;;;;;;3.63;1.30;;;21.50;1.30;;;;;;5084431;28;21195;-79
2022/07/18 03:41:37;;;;;;;1.70;1.57;;;21.40;1.00;;;;;;5083332;28;20950;-79
2022/07/18 03:44:06;;;;;;;1.60;1.50;;;21.40;1.00;;;;;;5080215;28;20516;-79
2022/07/18 03:46:34;;;;;;;1.43;1.33;;;21.40;1.00;;;;;;5078314;28;20449;-78
2022/07/18 03:49:04;;;;;;;4.27;1.70;;;21.40;1.00;;;;;;5081584;28;20519;-78
2022/07/18 03:51:33;;;;;;;1.40;1.30;;;21.30;1.00;;;;;;5083585;28;20449;-79
2022/07/18 03:54:01;;;;;;;1.60;1.50;;;21.30;1.00;;;;;;5082731;28;20457;-78
2022/07/18 03:56:31;;;;;;;1.60;1.50;;;21.30;1.00;;;;;;5082940;28;20442;-78
2022/07/18 03:58:59;;;;;;;1.60;1.50;;;21.30;1.00;;;;;;5082683;28;20476;-78
2022/07/18 04:01:28;;;;;;;1.40;1.30;;;21.30;1.00;;;;;;5076014;28;20491;-78
2022/07/18 04:03:56;;;;;;;2.23;1.70;;;21.30;1.00;;;;;;5075026;28;20467;-79
2022/07/18 04:06:24;;;;;;;1.87;1.50;;;21.30;1.00;;;;;;5078372;28;20500;-79
2022/07/18 04:08:52;;;;;;;1.57;1.47;;;21.30;1.00;;;;;;5079879;28;20466;-79
2022/07/18 04:11:23;;;;;;;1.93;1.50;;;21.30;1.00;;;;;;5079903;28;20481;-79
2022/07/18 04:13:54;;;;;;;1.77;1.67;;;21.30;1.00;;;;;;5083360;28;20441;-79
2022/07/18 04:16:22;;;;;;;1.83;1.47;;;21.20;1.00;;;;;;5077429;28;20446;-80
2022/07/18 04:18:51;;;;;;;1.30;1.20;;;21.20;1.00;;;;;;5082612;28;20494;-79
2022/07/18 04:21:19;;;;;;;3.10;1.47;;;21.20;1.00;;;;;;5079312;28;20462;-80
2022/07/18 04:23:47;;;;;;;1.83;1.60;;;21.20;1.00;;;;;;5079704;28;20477;-79
2022/07/18 04:26:16;;;;;;;1.83;1.73;;;21.20;1.30;;;;;;5079061;28;20516;-79
2022/07/18 04:28:44;;;;;;;1.57;1.47;;;21.30;1.30;;;;;;5081461;28;20485;-79
2022/07/18 04:31:14;;;;;;;2.30;1.50;;;21.20;1.00;;;;;;5078155;28;21072;-79
2022/07/18 04:33:42;;;;;;;1.60;1.50;;;21.30;1.30;;;;;;5079832;28;20463;-77
2022/07/18 04:36:11;;;;;;;1.67;1.47;;;21.20;1.00;;;;;;5078934;28;20467;-74
2022/07/18 04:38:39;;;;;;;2.40;1.50;;;21.20;1.00;;;;;;5081174;28;21106;-76
2022/07/18 04:41:08;;;;;;;1.63;1.50;;;21.10;1.00;;;;;;5081590;28;20518;-77
2022/07/18 04:43:36;;;;;;;1.90;1.80;;;21.20;1.00;;;;;;5077591;28;21000;-77
2022/07/18 04:46:04;;;;;;;2.13;1.93;;;21.20;1.00;;;;;;5074198;28;20219;-76
2022/07/18 04:48:34;;;;;;;1.90;1.58;;;21.10;1.00;;;;;;5079829;28;20443;-76
2022/07/18 04:51:02;;;;;;;2.47;1.60;;;21.10;1.70;;;;;;5081252;28;20440;-76
2022/07/18 04:53:30;;;;;;;1.50;1.40;;;21.10;1.70;;;;;;5083400;28;20204;-77
2022/07/18 04:55:58;;;;;;;3.07;1.83;;;21.20;1.50;;;;;;5087808;28;20464;-78
2022/07/18 04:58:27;;;;;;;1.80;1.53;;;21.30;1.90;;;;;;5086602;28;20454;-80
2022/07/18 05:00:55;;;;;;;2.23;1.70;;;21.30;2.40;;;;;;5090644;28;20788;-79
2022/07/18 05:03:24;;;;;;;1.60;1.50;;;21.40;2.70;;;;;;5087328;28;20473;-78
2022/07/18 05:05:54;;;;;;;2.40;2.20;;;21.50;3.80;;;;;;5087306;28;20469;-79
2022/07/18 05:08:22;;;;;;;1.83;1.67;;;21.60;3.60;;;;;;5089546;28;20483;-79
2022/07/18 05:10:50;;;;;;;2.60;1.23;;;21.60;3.90;;;;;;5088375;28;20451;-78
2022/07/18 05:13:18;;;;;;;1.80;1.30;;;21.50;3.20;;;;;;5089057;28;20442;-79
2022/07/18 05:15:47;;;;;;;2.10;1.50;;;21.60;3.60;;;;;;5090257;28;20470;-79
2022/07/18 05:18:15;;;;;;;1.73;1.63;;;21.60;4.10;;;;;;5091479;28;20820;-79
2022/07/18 05:20:43;;;;;;;2.10;1.53;;;21.60;4.00;;;;;;5086328;28;20457;-79
2022/07/18 05:23:15;;;;;;;3.03;1.83;;;21.60;3.80;;;;;;5090127;28;20438;-80
2022/07/18 05:25:43;;;;;;;1.57;1.47;;;21.70;3.30;;;;;;5085208;28;20469;-78
2022/07/18 05:28:11;;;;;;;2.20;1.63;;;21.70;2.90;;;;;;5087693;28;20798;-79
2022/07/18 05:30:40;;;;;;;2.13;1.90;;;21.70;4.90;;;;;;5092535;28;20450;-80
2022/07/18 05:33:08;;;;;;;3.87;3.00;;;21.80;5.40;;;;;;5091869;28;20473;-78
2022/07/18 05:35:36;;;;;;;3.73;3.10;;;21.90;6.40;;;;;;5072996;28;20462;-78
2022/07/18 05:38:04;;;;;;;2.23;1.83;;;21.90;6.30;;;;;;5090619;28;20491;-78
2022/07/18 05:40:34;;;;;;;2.43;2.23;;;21.90;7.50;;;;;;5088872;28;20445;-78
2022/07/18 05:43:03;;;;;;;2.40;1.70;;;22.00;6.50;;;;;;5089873;28;20465;-80
2022/07/18 05:45:32;;;;;;;2.90;2.20;;;22.00;7.40;;;;;;5086108;28;20569;-78
2022/07/18 05:48:00;;;;;;;3.17;1.77;;;22.00;7.50;;;;;;5089576;28;20442;-79
2022/07/18 05:50:28;;;;;;;3.50;2.47;;;22.00;7.40;;;;;;5082174;28;20562;-78
2022/07/18 05:52:56;;;;;;;2.40;2.00;;;22.10;8.10;;;;;;5076404;28;20558;-79
2022/07/18 05:55:24;;;;;;;2.70;2.20;;;22.10;9.00;;;;;;5079048;28;20473;-79
2022/07/18 05:57:54;;;;;;;4.33;2.10;;;22.10;9.30;;;;;;5086106;28;20470;-80
2022/07/18 06:00:23;;;;;;;2.37;1.83;;;22.20;9.10;;;;;;5074936;28;20455;-78
2022/07/18 06:02:51;;;;;;;2.70;2.47;;;22.20;9.20;;;;;;5085944;28;20526;-79
2022/07/18 06:05:20;;;;;;;5.20;2.03;;;22.30;10.70;;;;;;5081141;28;20483;-78
2022/07/18 06:07:51;;;;;;;2.93;1.73;;;22.30;11.10;;;;;;5086735;28;20478;-79
2022/07/18 06:10:20;;;;;;;2.50;1.73;;;22.40;9.90;;;;;;5082378;28;20458;-79
2022/07/18 06:12:49;;;;;;;3.20;2.90;;;22.50;11.30;;;;;;5084838;28;20448;-79
2022/07/18 06:15:20;;;;;;;2.67;2.20;;;22.50;11.50;;;;;;5082936;28;20782;-80
2022/07/18 06:17:48;;;;;;;2.43;1.90;;;22.60;11.10;;;;;;5084239;28;20453;-80
2022/07/18 06:20:17;;;;;;;4.83;2.47;;;22.60;11.40;;;;;;5084220;28;20456;-79
2022/07/18 06:22:45;;;;;;;5.13;1.80;;;22.60;12.10;;;;;;5088507;28;20446;-80
2022/07/18 06:25:13;;;;;;;3.13;1.70;;;22.70;13.20;;;;;;5085332;28;20491;-79
2022/07/18 06:27:42;;;;;;;2.57;1.53;;;22.70;13.40;;;;;;5079745;28;20458;-79
2022/07/18 06:30:11;;;;;;;6.87;2.27;;;22.80;15.20;;;;;;5079549;28;20904;-78
2022/07/18 06:32:40;;;;;;;4.37;1.80;;;22.80;13.10;;;;;;5090453;28;20471;-79
2022/07/18 06:35:09;;;;;;;5.70;2.40;;;22.90;14.80;;;;;;5086820;28;20461;-79
2022/07/18 06:37:38;;;;;;;2.00;1.80;;;22.90;13.40;;;;;;5087041;28;20454;-78
2022/07/18 06:40:08;;;;;;;2.33;1.70;;;22.90;13.60;;;;;;5085595;28;20464;-78
2022/07/18 06:42:36;;;;;;;3.63;1.70;;;23.00;13.30;;;;;;5081665;28;20464;-78
2022/07/18 06:45:06;;;;;;;2.87;1.60;;;23.00;14.70;;;;;;5084315;28;20474;-79
2022/07/18 06:47:42;;;;;;;2.30;1.50;;;23.10;15.30;;;;;;5087112;28;20558;-80
2022/07/18 06:50:12;;;;;;;3.10;1.60;;;23.20;15.50;;;;;;5083864;28;20446;-79
2022/07/18 06:52:40;;;;;;;4.07;2.50;;;23.30;15.50;;;;;;5082790;28;20506;-78
2022/07/18 06:55:10;;;;;;;2.47;1.70;;;23.30;15.90;;;;;;5085750;28;20549;-79
2022/07/18 06:57:39;;;;;;;4.43;2.00;;;23.40;16.00;;;;;;5086675;28;20510;-80
2022/07/18 07:00:09;;;;;;;7.10;2.20;;;23.50;17.20;;;;;;5082330;28;20445;-78
2022/07/18 07:02:51;;;;;;;4.10;2.20;;;23.50;17.00;;;;;;5077459;28;20455;-80
2022/07/18 07:05:21;;;;;;;1.73;1.63;;;23.70;18.00;;;;;;5081274;28;20535;-80
2022/07/18 07:07:50;;;;;;;2.90;1.60;;;23.70;19.10;;;;;;5083061;28;21230;-79
2022/07/18 07:10:19;;;;;;;2.03;1.70;;;23.80;19.30;;;;;;5083056;28;20749;-80
2022/07/18 07:12:49;;;;;;;1.43;1.20;;;23.90;18.60;;;;;;5080321;28;20450;-80
2022/07/18 07:15:20;;;;;;;2.30;1.60;;;24.10;18.80;;;;;;5081460;28;20484;-79
2022/07/18 07:17:50;;;;;;;3.30;1.30;;;24.20;19.20;;;;;;5081581;28;20453;-80
2022/07/18 07:20:20;;;;;;;2.00;1.37;;;24.30;20.60;;;;;;5085230;28;20450;-80
2022/07/18 07:22:50;;;;;;;2.27;2.03;;;24.40;21.30;;;;;;5082603;28;20464;-80
2022/07/18 07:25:20;;;;;;;1.50;1.40;;;24.50;20.40;;;;;;5087498;28;20832;-80
2022/07/18 07:27:49;;;;;;;1.70;1.60;;;24.50;20.10;;;;;;5088943;28;20446;-80
2022/07/18 07:30:17;;;;;;;3.67;1.50;;;24.60;23.30;;;;;;5083364;28;20458;-81
2022/07/18 07:32:47;;;;;;;3.00;1.43;;;24.70;23.70;;;;;;5084167;28;20469;-81
2022/07/18 07:35:19;;;;;;;2.13;1.30;;;24.70;22.10;;;;;;5079626;28;20492;-81
2022/07/18 07:37:49;;;;;;;1.40;1.30;;;24.80;23.10;;;;;;5081787;28;20814;-81
2022/07/18 07:40:18;;;;;;;1.37;1.27;;;24.80;22.60;;;;;;5084176;28;20457;-81
2022/07/18 07:42:46;;;;;;;1.80;1.70;;;24.80;22.50;;;;;;5085555;28;20480;-81
2022/07/18 07:45:15;;;;;;;2.90;1.47;;;24.80;23.90;;;;;;5077365;28;20470;-80
2022/07/18 07:47:43;;;;;;;1.33;1.23;;;24.90;23.50;;;;;;5087583;28;20438;-81
2022/07/18 07:50:13;;;;;;;1.77;1.30;;;24.90;24.30;;;;;;5085077;28;20486;-81
2022/07/18 07:52:42;;;;;;;2.00;1.23;;;24.90;23.30;;;;;;5081975;28;20455;-80
2022/07/18 07:55:10;;;;;;;2.20;1.30;;;25.00;23.60;;;;;;5075294;28;20568;-81
2022/07/18 07:57:39;;;;;;;1.40;1.30;;;25.00;24.70;;;;;;5082435;28;20454;-80
2022/07/18 08:00:09;;;;;;;2.27;2.10;;;25.10;25.00;;;;;;5084843;28;20465;-81
2022/07/18 08:02:37;;;;;;;1.50;1.40;;;25.10;23.90;;;;;;5078996;28;20469;-80
2022/07/18 08:05:06;;;;;;;2.57;1.30;;;25.10;23.40;;;;;;5085094;28;20481;-78
2022/07/18 08:07:34;;;;;;;1.40;1.30;;;25.10;22.70;;;;;;5083274;28;20455;-80
2022/07/18 08:10:05;;;;;;;1.50;1.37;;;25.20;25.10;;;;;;5083917;28;20845;-81
2022/07/18 08:12:33;;;;;;;1.63;1.17;;;25.20;35.80;;;;;;5086659;28;20489;-81
2022/07/18 08:15:01;;;;;;;1.20;1.10;;;25.30;25.60;;;;;;5078536;28;20496;-81
2022/07/18 08:17:29;;;;;;;2.90;1.60;;;25.30;24.20;;;;;;5083731;28;20536;-81
2022/07/18 08:19:58;;;;;;;1.27;1.17;;;25.30;24.00;;;;;;5084977;28;20528;-81
2022/07/18 08:22:26;;;;;;;2.10;1.47;;;25.30;23.80;;;;;;5079247;28;20453;-80
2022/07/18 08:24:54;;;;;;;1.20;1.20;;;25.40;23.00;;;;;;5084138;28;20561;-81
2022/07/18 08:27:24;;;;;;;1.50;1.40;;;25.40;25.10;;;;;;5082673;28;21052;-81
2022/07/18 08:29:52;;;;;;;1.50;1.40;;;25.40;26.10;;;;;;5081472;28;20526;-81
2022/07/18 08:32:35;;;;;;;1.40;1.30;;;25.50;25.20;;;;;;5082551;28;20518;-81
2022/07/18 08:35:04;;;;;;;4.70;1.50;;;25.50;24.70;;;;;;5087728;28;20939;-79
2022/07/18 08:37:32;;;;;;;2.53;1.30;;;25.50;24.60;;;;;;5084241;28;21174;-80
2022/07/18 08:40:00;;;;;;;1.40;1.30;;;25.50;26.40;;;;;;5088463;28;20528;-80
2022/07/18 08:42:32;;;;;;;1.40;1.30;;;25.60;25.80;;;;;;5082806;28;20451;-81
2022/07/18 08:45:01;;;;;;;1.63;1.53;;;25.60;25.40;;;;;;5085111;28;20474;-81
2022/07/18 08:47:30;;;;;;;1.27;1.17;;;25.60;25.60;;;;;;5084891;28;20493;-81
2022/07/18 08:49:59;;;;;;;1.47;1.23;;;25.70;25.00;;;;;;5086892;28;20462;-81
2022/07/18 08:52:28;;;;;;;1.40;1.30;;;25.70;27.10;;;;;;5088036;28;20481;-81
2022/07/18 08:55:16;;;;;;;1.27;1.10;;;25.70;27.10;;;;;;5096963;28;20465;-81
2022/07/18 08:57:55;;;;;;;2.03;1.30;;;25.70;26.70;;;;;;5097911;28;20452;-81
2022/07/18 09:00:23;;;;;;;1.50;1.40;;;25.70;27.10;;;;;;5091338;28;20542;-80
2022/07/18 09:03:00;;;;;;;1.70;1.60;;;25.80;26.00;;;;;;5084068;28;20446;-81
2022/07/18 09:05:29;;;;;;;1.03;1.03;;;25.80;25.70;;;;;;5091789;28;20477;-81
2022/07/18 09:08:12;;;;;;;1.53;1.43;;;25.90;24.90;;;;;;5085651;28;20457;-80
2022/07/18 09:10:50;;;;;;;1.57;1.47;;;26.00;24.60;;;;;;5097655;28;20468;-80
2022/07/18 09:13:22;;;;;;;1.40;1.30;;;26.00;26.90;;;;;;5091204;28;20500;-81
2022/07/18 09:16:02;;;;;;;1.30;1.23;;;26.10;26.30;;;;;;5090485;28;20481;-81
2022/07/18 09:18:32;;;;;;;1.20;1.10;;;26.20;27.30;;;;;;5078121;28;20453;-80
2022/07/18 09:21:06;;;;;;;1.30;1.20;;;26.20;26.30;;;;;;5088032;28;20495;-81
2022/07/18 09:23:37;;;;;;;1.70;1.47;;;26.20;26.70;;;;;;5080847;28;20462;-81
2022/07/18 09:26:06;;;;;;;1.27;1.17;;;26.10;27.10;;;;;;5084437;28;21157;-81
2022/07/18 09:28:50;;;;;;;1.27;1.17;;;26.20;26.30;;;;;;5085087;28;20456;-82
2022/07/18 09:31:38;;;;;;;1.23;1.13;;;26.20;27.20;;;;;;5085253;28;20458;-81
2022/07/18 09:34:06;;;;;;;1.50;1.40;;;26.20;29.20;;;;;;5087566;28;20553;-80
2022/07/18 09:36:36;;;;;;;1.40;1.30;;;26.20;29.10;;;;;;5081272;28;20451;-81
2022/07/18 09:39:19;;;;;;;1.20;1.10;;;26.30;30.00;;;;;;5081427;28;20497;-80
2022/07/18 09:41:47;;;;;;;1.30;1.20;;;26.40;28.80;;;;;;5077702;28;20456;-81
2022/07/18 09:44:17;;;;;;;1.10;1.00;;;26.40;31.00;;;;;;5085477;28;20482;-82
2022/07/18 09:47:01;;;;;;;1.33;1.23;;;26.40;30.00;;;;;;5083109;28;21017;-81
2022/07/18 09:49:30;;;;;;;2.13;1.40;;;26.50;29.20;;;;;;5085394;28;20461;-81
2022/07/18 09:52:06;;;;;;;1.27;1.17;;;26.50;29.00;;;;;;5086334;28;20453;-81
2022/07/18 09:54:39;;;;;;;1.30;1.20;;;26.60;29.30;;;;;;5084751;28;20471;-80
2022/07/18 09:57:07;;;;;;;2.43;1.40;;;26.60;30.30;;;;;;5087413;28;20438;-79
2022/07/18 09:59:37;;;;;;;1.77;1.30;;;26.60;32.10;;;;;;5086088;28;20453;-81
2022/07/18 10:02:10;;;;;;;1.30;1.20;;;26.70;44.20;;;;;;5083854;28;20457;-82
2022/07/18 10:04:40;;;;;;;1.30;1.20;;;26.70;32.20;;;;;;5079388;28;20513;-81
2022/07/18 10:07:09;;;;;;;1.40;1.30;;;26.80;33.10;;;;;;5083240;28;20485;-82
2022/07/18 10:09:39;;;;;;;1.60;1.40;;;27.00;32.00;;;;;;5082593;28;20453;-81
2022/07/18 10:12:08;;;;;;;1.30;1.20;;;27.00;31.20;;;;;;5085609;28;20442;-81
2022/07/18 10:14:39;;;;;;;1.43;1.30;;;27.00;35.20;;;;;;5081098;28;20598;-81
2022/07/18 10:17:07;;;;;;;1.20;1.13;;;27.00;32.50;;;;;;5082283;28;20457;-80
2022/07/18 10:19:36;;;;;;;1.67;1.30;;;27.00;31.70;;;;;;5090390;28;20454;-81
2022/07/18 10:22:07;;;;;;;1.57;1.20;;;26.90;33.20;;;;;;5083544;28;20454;-80
2022/07/18 10:24:39;;;;;;;1.30;1.20;;;26.90;31.90;;;;;;5083206;28;20544;-81
2022/07/18 10:27:16;;;;;;;1.87;1.20;;;27.00;29.40;;;;;;5086260;28;20477;-81
2022/07/18 10:30:11;;;;;;;2.30;1.20;;;27.00;32.20;;;;;;5079945;28;20469;-81
2022/07/18 10:32:40;;;;;;;1.10;1.00;;;27.00;32.50;;;;;;5081710;28;20552;-82
2022/07/18 10:35:10;;;;;;;1.23;1.13;;;27.10;31.20;;;;;;5083297;28;20513;-81
2022/07/18 10:37:39;;;;;;;1.20;1.10;;;27.10;33.40;;;;;;5085593;28;20446;-82
2022/07/18 10:40:28;;;;;;;1.27;0.90;;;27.10;35.00;;;;;;5085810;28;21271;-81
2022/07/18 10:43:33;;;;;;;0.90;0.90;;;27.20;33.80;;;;;;5083350;28;20455;-82
2022/07/18 10:46:03;;;;;;;1.23;1.17;;;27.10;29.60;;;;;;5080450;28;20484;-82
2022/07/18 10:48:51;;;;;;;1.73;1.30;;;27.10;32.50;;;;;;5081973;28;20511;-81
2022/07/18 10:51:19;;;;;;;1.27;1.13;;;27.20;29.80;;;;;;5077408;28;20438;-82
2022/07/18 10:54:11;;;;;;;1.13;1.10;;;27.20;33.90;;;;;;5084459;28;20450;-82
2022/07/18 10:57:08;;;;;;;2.03;1.37;;;27.20;34.80;;;;;;5087099;28;20445;-81
2022/07/18 11:00:01;;;;;;;1.20;1.10;;;27.20;33.50;;;;;;5078334;28;21078;-82
2022/07/18 11:02:36;;;;;;;1.30;1.20;;;27.20;30.20;;;;;;5088469;28;20511;-82
2022/07/18 11:05:34;;;;;;;1.33;1.13;;;27.30;29.90;;;;;;5075142;28;20478;-81
2022/07/18 11:08:28;;;;;;;1.23;1.17;;;27.30;31.60;;;;;;5080826;28;20500;-81
2022/07/18 11:11:11;;;;;;;2.30;1.23;;;27.40;32.40;;;;;;5078659;28;20454;-81
2022/07/18 11:13:40;;;;;;;1.20;1.10;;;27.40;30.30;;;;;;5090726;28;20446;-82
2022/07/18 11:16:12;;;;;;;1.63;1.10;;;27.40;30.80;;;;;;5082540;28;20474;-80
2022/07/18 11:19:20;;;;;;;2.00;1.33;;;27.40;31.20;;;;;;5081914;28;20452;-82
2022/07/18 11:21:58;;;;;;;1.77;1.20;;;27.50;28.70;;;;;;5082021;28;20457;-82
2022/07/18 11:24:27;;;;;;;1.40;1.30;;;27.60;31.30;;;;;;5080313;28;20470;-82
2022/07/18 11:26:55;;;;;;;1.57;1.27;;;27.70;32.50;;;;;;5087425;28;20481;-82
2022/07/18 11:29:24;;;;;;;1.20;1.10;;;27.80;32.90;;;;;;5086582;28;21217;-80
2022/07/18 11:31:53;;;;;;;1.30;1.30;;;27.80;34.50;;;;;;5078606;28;20488;-81
2022/07/18 11:34:24;;;;;;;0.97;0.97;;;27.90;32.30;;;;;;5081446;28;20489;-80
2022/07/18 11:37:09;;;;;;;1.70;1.20;;;28.00;34.10;;;;;;5083588;28;20480;-80
2022/07/18 11:39:37;;;;;;;1.40;1.20;;;28.10;35.30;;;;;;5082898;28;20502;-80
2022/07/18 11:42:05;;;;;;;1.73;1.30;;;28.20;36.60;;;;;;5085444;28;20903;-80
2022/07/18 11:44:34;;;;;;;3.23;1.10;;;28.20;37.20;;;;;;5086447;28;20474;-80
2022/07/18 11:47:03;;;;;;;1.10;1.03;;;28.30;36.40;;;;;;5081736;28;20850;-81
2022/07/18 11:49:34;;;;;;;2.80;1.20;;;28.40;35.20;;;;;;5091398;28;20441;-81
2022/07/18 11:52:02;;;;;;;1.07;1.07;;;28.40;37.00;;;;;;5080383;28;20441;-81
2022/07/18 11:54:32;;;;;;;1.20;1.10;;;28.40;39.00;;;;;;5090101;28;20526;-82
2022/07/18 11:57:00;;;;;;;1.30;1.20;;;28.40;37.60;;;;;;5094600;28;20511;-82
2022/07/18 11:59:39;;;;;;;1.30;1.13;;;28.50;39.50;;;;;;5094011;28;20437;-80
2022/07/18 12:02:08;;;;;;;1.93;1.30;;;28.50;37.70;;;;;;5083911;28;20488;-81
2022/07/18 12:04:38;;;;;;;1.10;1.10;;;28.50;35.10;;;;;;5088322;28;20495;-81
2022/07/18 12:07:18;;;;;;;1.50;1.17;;;28.50;37.20;;;;;;5080106;28;20473;-80
2022/07/18 12:09:46;;;;;;;1.20;1.20;;;28.60;35.10;;;;;;5092166;28;20455;-81
2022/07/18 12:12:17;;;;;;;1.30;1.20;;;28.50;38.00;;;;;;5091933;28;20450;-81
2022/07/18 12:14:59;;;;;;;1.60;1.33;;;28.60;36.90;;;;;;5089386;28;20469;-81
2022/07/18 12:17:28;;;;;;;1.40;1.30;;;28.60;35.10;;;;;;5090710;28;20485;-81
2022/07/18 12:20:12;;;;;;;1.20;1.10;;;28.60;36.70;;;;;;5088566;28;20485;-81
2022/07/18 12:23:07;;;;;;;1.37;1.27;;;28.60;36.00;;;;;;5090929;28;20458;-81
2022/07/18 12:25:39;;;;;;;1.10;1.10;;;28.70;34.80;;;;;;5084923;28;20486;-80
2022/07/18 12:28:15;;;;;;;1.17;1.10;;;28.70;36.00;;;;;;5092514;28;20474;-81
2022/07/18 12:30:44;;;;;;;1.67;1.00;;;28.80;36.70;;;;;;5094778;28;20449;-81
2022/07/18 12:33:12;;;;;;;1.30;1.20;;;28.80;38.00;;;;;;5079106;28;20905;-81
2022/07/18 12:35:42;;;;;;;1.23;1.10;;;28.90;38.10;;;;;;5090602;28;20552;-80
2022/07/18 12:38:13;;;;;;;1.40;1.30;;;28.90;39.50;;;;;;5083218;28;20523;-81
2022/07/18 12:40:45;;;;;;;1.10;1.10;;;29.00;39.50;;;;;;5082775;28;20460;-81
2022/07/18 12:43:15;;;;;;;1.20;1.10;;;29.00;37.30;;;;;;5085169;28;20456;-81
2022/07/18 12:45:44;;;;;;;1.30;1.20;;;29.00;38.50;;;;;;5090236;28;20492;-81
2022/07/18 12:48:13;;;;;;;1.20;1.10;;;29.00;38.40;;;;;;5089188;28;20483;-81
2022/07/18 12:50:44;;;;;;;1.33;1.23;;;29.00;51.40;;;;;;5082452;28;20541;-82
2022/07/18 12:53:13;;;;;;;1.30;1.20;;;29.00;37.60;;;;;;5081619;28;20576;-82
2022/07/18 12:55:41;;;;;;;1.30;1.20;;;29.00;37.10;;;;;;5091518;28;20501;-82
2022/07/18 12:58:10;;;;;;;1.23;1.10;;;29.00;39.20;;;;;;5090400;28;20438;-82
2022/07/18 13:00:39;;;;;;;1.17;1.10;;;29.10;43.00;;;;;;5087844;28;20445;-82
2022/07/18 13:03:07;;;;;;;1.30;1.20;;;29.20;41.10;;;;;;5087662;28;21186;-81
2022/07/18 13:05:36;;;;;;;1.73;1.00;;;29.20;42.20;;;;;;5088998;28;20479;-83
2022/07/18 13:08:07;;;;;;;1.53;1.43;;;29.20;43.40;;;;;;5079373;28;20519;-82
2022/07/18 13:10:36;;;;;;;1.83;1.20;;;29.30;42.80;;;;;;5081333;28;20462;-81
2022/07/18 13:13:06;;;;;;;1.30;1.20;;;29.40;42.20;;;;;;5077688;28;20458;-81